sensor_id;sensor_type;location;lat;lon;timestamp;P1;durP1;ratioP1;P2;durP2;ratioP2
13611;SDS011;6877;51.436;6.774;2022-12-07T00:01:35;30.25;;;18.05;;
13611;SDS011;6877;51.436;6.774;2022-12-07T00:04:04;33.47;;;18.75;;
13611;SDS011;6877;51.436;6.774;2022-12-07T00:06:33;27.85;;;19.90;;
13611;SDS011;6877;51.436;6.774;2022-12-07T00:09:00;32.90;;;19.95;;
13611;SDS011;6877;51.436;6.774;2022-12-07T00:11:27;29.48;;;19.00;;
13611;SDS011;6877;51.436;6.774;2022-12-07T00:13:59;31.35;;;18.33;;
13611;SDS011;6877;51.436;6.774;2022-12-07T00:16:33;29.30;;;18.52;;
13611;SDS011;6877;51.436;6.774;2022-12-07T00:19:00;28.60;;;18.05;;
13611;SDS011;6877;51.436;6.774;2022-12-07T00:21:34;25.90;;;18.02;;
13611;SDS011;6877;51.436;6.774;2022-12-07T00:24:02;30.60;;;18.38;;
13611;SDS011;6877;51.436;6.774;2022-12-07T00:26:31;27.83;;;18.80;;
13611;SDS011;6877;51.436;6.774;2022-12-07T00:29:17;28.77;;;18.65;;
13611;SDS011;6877;51.436;6.774;2022-12-07T00:31:52;33.25;;;20.50;;
13611;SDS011;6877;51.436;6.774;2022-12-07T00:34:19;29.90;;;19.80;;
13611;SDS011;6877;51.436;6.774;2022-12-07T00:36:52;30.30;;;21.23;;
13611;SDS011;6877;51.436;6.774;2022-12-07T00:39:18;33.25;;;20.52;;
13611;SDS011;6877;51.436;6.774;2022-12-07T00:41:45;33.05;;;19.88;;
13611;SDS011;6877;51.436;6.774;2022-12-07T00:44:11;32.78;;;19.02;;
13611;SDS011;6877;51.436;6.774;2022-12-07T00:46:38;28.98;;;20.10;;
13611;SDS011;6877;51.436;6.774;2022-12-07T00:49:09;29.92;;;20.08;;
13611;SDS011;6877;51.436;6.774;2022-12-07T00:51:36;33.10;;;19.05;;
13611;SDS011;6877;51.436;6.774;2022-12-07T00:54:02;35.67;;;20.42;;
13611;SDS011;6877;51.436;6.774;2022-12-07T00:56:28;32.25;;;19.58;;
13611;SDS011;6877;51.436;6.774;2022-12-07T00:59:00;27.77;;;17.00;;
13611;SDS011;6877;51.436;6.774;2022-12-07T01:01:28;34.35;;;20.25;;
13611;SDS011;6877;51.436;6.774;2022-12-07T01:04:01;31.60;;;19.00;;
13611;SDS011;6877;51.436;6.774;2022-12-07T01:06:28;34.70;;;21.80;;
13611;SDS011;6877;51.436;6.774;2022-12-07T01:09:00;32.25;;;18.77;;
13611;SDS011;6877;51.436;6.774;2022-12-07T01:11:29;29.70;;;19.58;;
13611;SDS011;6877;51.436;6.774;2022-12-07T01:13:56;29.90;;;19.30;;
13611;SDS011;6877;51.436;6.774;2022-12-07T01:16:30;27.20;;;17.77;;
13611;SDS011;6877;51.436;6.774;2022-12-07T01:18:57;35.80;;;19.50;;
13611;SDS011;6877;51.436;6.774;2022-12-07T01:21:26;32.83;;;19.80;;
13611;SDS011;6877;51.436;6.774;2022-12-07T01:23:58;27.67;;;18.08;;
13611;SDS011;6877;51.436;6.774;2022-12-07T01:26:25;31.48;;;19.92;;
13611;SDS011;6877;51.436;6.774;2022-12-07T01:28:56;32.28;;;20.02;;
13611;SDS011;6877;51.436;6.774;2022-12-07T01:31:25;28.73;;;18.25;;
13611;SDS011;6877;51.436;6.774;2022-12-07T01:33:53;31.52;;;19.95;;
13611;SDS011;6877;51.436;6.774;2022-12-07T01:36:27;33.30;;;20.35;;
13611;SDS011;6877;51.436;6.774;2022-12-07T01:39:03;30.83;;;19.23;;
13611;SDS011;6877;51.436;6.774;2022-12-07T01:41:33;36.78;;;20.00;;
13611;SDS011;6877;51.436;6.774;2022-12-07T01:47:01;34.92;;;19.30;;
13611;SDS011;6877;51.436;6.774;2022-12-07T01:55:00;32.22;;;19.10;;
13611;SDS011;6877;51.436;6.774;2022-12-07T01:57:35;28.80;;;19.42;;
13611;SDS011;6877;51.436;6.774;2022-12-07T02:00:11;29.42;;;18.33;;
13611;SDS011;6877;51.436;6.774;2022-12-07T02:02:57;26.77;;;17.70;;
13611;SDS011;6877;51.436;6.774;2022-12-07T02:05:47;27.58;;;16.58;;
13611;SDS011;6877;51.436;6.774;2022-12-07T02:08:20;30.90;;;18.48;;
13611;SDS011;6877;51.436;6.774;2022-12-07T02:10:52;35.72;;;19.15;;
13611;SDS011;6877;51.436;6.774;2022-12-07T02:13:19;37.95;;;21.80;;
13611;SDS011;6877;51.436;6.774;2022-12-07T02:30:05;29.00;;;18.20;;
13611;SDS011;6877;51.436;6.774;2022-12-07T02:40:34;31.08;;;19.25;;
13611;SDS011;6877;51.436;6.774;2022-12-07T02:43:12;29.88;;;18.40;;
13611;SDS011;6877;51.436;6.774;2022-12-07T02:45:48;27.00;;;17.52;;
13611;SDS011;6877;51.436;6.774;2022-12-07T02:48:18;30.40;;;18.25;;
13611;SDS011;6877;51.436;6.774;2022-12-07T02:50:52;30.73;;;17.13;;
13611;SDS011;6877;51.436;6.774;2022-12-07T03:10:27;36.72;;;21.33;;
13611;SDS011;6877;51.436;6.774;2022-12-07T03:15:59;33.65;;;17.60;;
13611;SDS011;6877;51.436;6.774;2022-12-07T03:18:45;34.60;;;20.58;;
13611;SDS011;6877;51.436;6.774;2022-12-07T03:21:16;43.08;;;20.73;;
13611;SDS011;6877;51.436;6.774;2022-12-07T03:23:47;28.10;;;17.73;;
13611;SDS011;6877;51.436;6.774;2022-12-07T03:26:19;28.83;;;18.73;;
13611;SDS011;6877;51.436;6.774;2022-12-07T03:28:55;36.22;;;19.08;;
13611;SDS011;6877;51.436;6.774;2022-12-07T03:31:28;31.50;;;19.00;;
13611;SDS011;6877;51.436;6.774;2022-12-07T03:34:03;29.88;;;17.50;;
13611;SDS011;6877;51.436;6.774;2022-12-07T03:36:47;32.88;;;18.58;;
13611;SDS011;6877;51.436;6.774;2022-12-07T03:41:54;33.03;;;19.70;;
13611;SDS011;6877;51.436;6.774;2022-12-07T03:44:26;32.40;;;19.38;;
13611;SDS011;6877;51.436;6.774;2022-12-07T03:49:53;36.35;;;20.20;;
13611;SDS011;6877;51.436;6.774;2022-12-07T03:55:25;36.50;;;20.52;;
13611;SDS011;6877;51.436;6.774;2022-12-07T03:57:58;36.95;;;22.50;;
13611;SDS011;6877;51.436;6.774;2022-12-07T04:00:30;40.42;;;21.77;;
13611;SDS011;6877;51.436;6.774;2022-12-07T04:02:57;34.38;;;20.50;;
13611;SDS011;6877;51.436;6.774;2022-12-07T04:05:29;31.33;;;19.30;;
13611;SDS011;6877;51.436;6.774;2022-12-07T04:07:55;40.42;;;22.08;;
13611;SDS011;6877;51.436;6.774;2022-12-07T04:10:22;34.60;;;19.40;;
13611;SDS011;6877;51.436;6.774;2022-12-07T04:12:53;34.85;;;20.52;;
13611;SDS011;6877;51.436;6.774;2022-12-07T04:15:20;32.70;;;19.63;;
13611;SDS011;6877;51.436;6.774;2022-12-07T04:17:46;32.45;;;18.30;;
13611;SDS011;6877;51.436;6.774;2022-12-07T04:20:13;34.67;;;19.02;;
13611;SDS011;6877;51.436;6.774;2022-12-07T04:22:44;34.40;;;20.08;;
13611;SDS011;6877;51.436;6.774;2022-12-07T04:25:11;35.17;;;20.60;;
13611;SDS011;6877;51.436;6.774;2022-12-07T04:27:37;36.33;;;20.02;;
13611;SDS011;6877;51.436;6.774;2022-12-07T04:30:03;34.50;;;20.05;;
13611;SDS011;6877;51.436;6.774;2022-12-07T04:32:30;37.20;;;18.83;;
13611;SDS011;6877;51.436;6.774;2022-12-07T04:34:57;34.90;;;20.35;;
13611;SDS011;6877;51.436;6.774;2022-12-07T04:37:23;38.28;;;18.63;;
13611;SDS011;6877;51.436;6.774;2022-12-07T04:39:50;32.78;;;19.13;;
13611;SDS011;6877;51.436;6.774;2022-12-07T04:42:22;31.35;;;18.60;;
13611;SDS011;6877;51.436;6.774;2022-12-07T04:44:48;32.38;;;19.05;;
13611;SDS011;6877;51.436;6.774;2022-12-07T04:47:19;36.13;;;20.75;;
13611;SDS011;6877;51.436;6.774;2022-12-07T04:49:46;36.47;;;19.98;;
13611;SDS011;6877;51.436;6.774;2022-12-07T04:52:12;40.20;;;20.42;;
13611;SDS011;6877;51.436;6.774;2022-12-07T04:54:38;32.25;;;19.13;;
13611;SDS011;6877;51.436;6.774;2022-12-07T04:57:05;32.75;;;19.58;;
13611;SDS011;6877;51.436;6.774;2022-12-07T04:59:31;32.42;;;18.77;;
13611;SDS011;6877;51.436;6.774;2022-12-07T05:02:02;39.83;;;19.58;;
13611;SDS011;6877;51.436;6.774;2022-12-07T05:04:34;41.30;;;18.63;;
13611;SDS011;6877;51.436;6.774;2022-12-07T05:07:00;29.55;;;18.95;;
13611;SDS011;6877;51.436;6.774;2022-12-07T05:09:26;35.60;;;18.48;;
13611;SDS011;6877;51.436;6.774;2022-12-07T05:11:58;29.42;;;16.65;;
13611;SDS011;6877;51.436;6.774;2022-12-07T05:14:24;28.95;;;17.38;;
13611;SDS011;6877;51.436;6.774;2022-12-07T05:16:51;32.45;;;17.35;;
13611;SDS011;6877;51.436;6.774;2022-12-07T05:19:19;27.77;;;16.95;;
13611;SDS011;6877;51.436;6.774;2022-12-07T05:21:51;34.42;;;16.23;;
13611;SDS011;6877;51.436;6.774;2022-12-07T05:24:17;28.67;;;16.30;;
13611;SDS011;6877;51.436;6.774;2022-12-07T05:26:49;31.58;;;15.15;;
13611;SDS011;6877;51.436;6.774;2022-12-07T05:29:16;31.77;;;15.52;;
13611;SDS011;6877;51.436;6.774;2022-12-07T05:31:43;26.52;;;15.65;;
13611;SDS011;6877;51.436;6.774;2022-12-07T05:34:10;28.13;;;15.52;;
13611;SDS011;6877;51.436;6.774;2022-12-07T05:36:36;26.48;;;15.05;;
13611;SDS011;6877;51.436;6.774;2022-12-07T05:39:08;31.95;;;17.45;;
13611;SDS011;6877;51.436;6.774;2022-12-07T05:41:34;37.13;;;16.60;;
13611;SDS011;6877;51.436;6.774;2022-12-07T05:44:24;36.78;;;15.43;;
13611;SDS011;6877;51.436;6.774;2022-12-07T05:46:51;35.85;;;15.55;;
13611;SDS011;6877;51.436;6.774;2022-12-07T05:49:22;35.35;;;17.25;;
13611;SDS011;6877;51.436;6.774;2022-12-07T05:51:49;25.63;;;15.73;;
13611;SDS011;6877;51.436;6.774;2022-12-07T05:54:15;26.83;;;14.27;;
13611;SDS011;6877;51.436;6.774;2022-12-07T05:56:42;27.98;;;14.88;;
13611;SDS011;6877;51.436;6.774;2022-12-07T05:59:08;28.08;;;14.00;;
13611;SDS011;6877;51.436;6.774;2022-12-07T06:01:55;30.85;;;14.93;;
13611;SDS011;6877;51.436;6.774;2022-12-07T06:04:22;26.50;;;14.95;;
13611;SDS011;6877;51.436;6.774;2022-12-07T06:06:52;31.52;;;13.98;;
13611;SDS011;6877;51.436;6.774;2022-12-07T06:09:19;27.20;;;14.10;;
13611;SDS011;6877;51.436;6.774;2022-12-07T06:11:47;31.67;;;15.43;;
13611;SDS011;6877;51.436;6.774;2022-12-07T06:14:37;24.75;;;14.07;;
13611;SDS011;6877;51.436;6.774;2022-12-07T06:17:04;27.25;;;14.27;;
13611;SDS011;6877;51.436;6.774;2022-12-07T06:19:39;23.95;;;14.93;;
13611;SDS011;6877;51.436;6.774;2022-12-07T06:22:11;26.27;;;14.65;;
13611;SDS011;6877;51.436;6.774;2022-12-07T06:24:38;32.35;;;16.33;;
13611;SDS011;6877;51.436;6.774;2022-12-07T06:27:06;28.67;;;14.88;;
13611;SDS011;6877;51.436;6.774;2022-12-07T06:29:32;27.02;;;15.10;;
13611;SDS011;6877;51.436;6.774;2022-12-07T06:31:59;21.77;;;13.77;;
13611;SDS011;6877;51.436;6.774;2022-12-07T06:34:31;24.80;;;14.07;;
13611;SDS011;6877;51.436;6.774;2022-12-07T06:37:02;26.15;;;13.40;;
13611;SDS011;6877;51.436;6.774;2022-12-07T06:39:29;31.42;;;16.60;;
13611;SDS011;6877;51.436;6.774;2022-12-07T06:42:01;24.98;;;15.02;;
13611;SDS011;6877;51.436;6.774;2022-12-07T06:44:27;30.98;;;16.42;;
13611;SDS011;6877;51.436;6.774;2022-12-07T06:46:59;26.05;;;14.23;;
13611;SDS011;6877;51.436;6.774;2022-12-07T06:49:25;21.95;;;12.65;;
13611;SDS011;6877;51.436;6.774;2022-12-07T06:51:57;25.23;;;13.52;;
13611;SDS011;6877;51.436;6.774;2022-12-07T06:54:23;25.70;;;14.10;;
13611;SDS011;6877;51.436;6.774;2022-12-07T06:56:54;35.60;;;15.20;;
13611;SDS011;6877;51.436;6.774;2022-12-07T06:59:21;26.13;;;15.05;;
13611;SDS011;6877;51.436;6.774;2022-12-07T07:01:52;32.38;;;17.92;;
13611;SDS011;6877;51.436;6.774;2022-12-07T07:04:18;29.23;;;14.52;;
13611;SDS011;6877;51.436;6.774;2022-12-07T07:06:45;31.67;;;14.82;;
13611;SDS011;6877;51.436;6.774;2022-12-07T07:09:12;23.92;;;13.52;;
13611;SDS011;6877;51.436;6.774;2022-12-07T07:11:38;29.17;;;15.48;;
13611;SDS011;6877;51.436;6.774;2022-12-07T07:14:04;23.13;;;14.38;;
13611;SDS011;6877;51.436;6.774;2022-12-07T07:16:31;27.13;;;13.98;;
13611;SDS011;6877;51.436;6.774;2022-12-07T07:18:57;31.55;;;17.20;;
13611;SDS011;6877;51.436;6.774;2022-12-07T07:21:29;33.22;;;16.50;;
13611;SDS011;6877;51.436;6.774;2022-12-07T07:23:55;30.73;;;15.52;;
13611;SDS011;6877;51.436;6.774;2022-12-07T07:26:23;26.27;;;15.68;;
13611;SDS011;6877;51.436;6.774;2022-12-07T07:28:54;31.88;;;16.50;;
13611;SDS011;6877;51.436;6.774;2022-12-07T07:31:25;31.40;;;15.05;;
13611;SDS011;6877;51.436;6.774;2022-12-07T07:33:52;32.40;;;17.98;;
13611;SDS011;6877;51.436;6.774;2022-12-07T07:36:23;29.77;;;15.80;;
13611;SDS011;6877;51.436;6.774;2022-12-07T07:38:50;27.45;;;15.45;;
13611;SDS011;6877;51.436;6.774;2022-12-07T07:41:21;24.52;;;14.73;;
13611;SDS011;6877;51.436;6.774;2022-12-07T07:43:52;26.95;;;15.13;;
13611;SDS011;6877;51.436;6.774;2022-12-07T07:46:19;30.75;;;14.95;;
13611;SDS011;6877;51.436;6.774;2022-12-07T07:48:45;29.77;;;15.48;;
13611;SDS011;6877;51.436;6.774;2022-12-07T07:51:12;24.23;;;14.95;;
13611;SDS011;6877;51.436;6.774;2022-12-07T07:53:38;30.30;;;16.45;;
13611;SDS011;6877;51.436;6.774;2022-12-07T07:56:05;29.15;;;15.63;;
13611;SDS011;6877;51.436;6.774;2022-12-07T07:58:31;29.30;;;14.85;;
13611;SDS011;6877;51.436;6.774;2022-12-07T08:01:03;28.92;;;13.70;;
13611;SDS011;6877;51.436;6.774;2022-12-07T08:03:35;27.20;;;14.73;;
13611;SDS011;6877;51.436;6.774;2022-12-07T08:06:07;29.17;;;15.18;;
13611;SDS011;6877;51.436;6.774;2022-12-07T08:08:33;24.45;;;12.63;;
13611;SDS011;6877;51.436;6.774;2022-12-07T08:11:00;26.23;;;14.40;;
13611;SDS011;6877;51.436;6.774;2022-12-07T08:13:27;27.63;;;14.88;;
13611;SDS011;6877;51.436;6.774;2022-12-07T08:15:59;25.70;;;14.77;;
13611;SDS011;6877;51.436;6.774;2022-12-07T08:18:36;23.92;;;13.50;;
13611;SDS011;6877;51.436;6.774;2022-12-07T08:21:03;20.63;;;14.05;;
13611;SDS011;6877;51.436;6.774;2022-12-07T08:23:30;23.80;;;13.10;;
13611;SDS011;6877;51.436;6.774;2022-12-07T08:26:00;21.83;;;12.27;;
13611;SDS011;6877;51.436;6.774;2022-12-07T08:28:33;26.52;;;13.55;;
13611;SDS011;6877;51.436;6.774;2022-12-07T08:31:00;27.58;;;15.32;;
13611;SDS011;6877;51.436;6.774;2022-12-07T08:33:28;29.90;;;14.35;;
13611;SDS011;6877;51.436;6.774;2022-12-07T08:35:59;26.73;;;13.68;;
13611;SDS011;6877;51.436;6.774;2022-12-07T08:38:37;31.73;;;14.50;;
13611;SDS011;6877;51.436;6.774;2022-12-07T08:41:05;28.13;;;13.80;;
13611;SDS011;6877;51.436;6.774;2022-12-07T08:43:32;22.88;;;12.40;;
13611;SDS011;6877;51.436;6.774;2022-12-07T08:46:18;23.65;;;12.15;;
13611;SDS011;6877;51.436;6.774;2022-12-07T08:48:52;22.35;;;12.52;;
13611;SDS011;6877;51.436;6.774;2022-12-07T08:51:29;26.52;;;14.40;;
13611;SDS011;6877;51.436;6.774;2022-12-07T08:53:56;23.35;;;13.10;;
13611;SDS011;6877;51.436;6.774;2022-12-07T08:56:31;22.70;;;13.45;;
13611;SDS011;6877;51.436;6.774;2022-12-07T08:58:58;24.65;;;13.35;;
13611;SDS011;6877;51.436;6.774;2022-12-07T09:01:24;21.90;;;11.25;;
13611;SDS011;6877;51.436;6.774;2022-12-07T09:03:56;24.98;;;13.15;;
13611;SDS011;6877;51.436;6.774;2022-12-07T09:06:22;26.48;;;13.02;;
13611;SDS011;6877;51.436;6.774;2022-12-07T09:08:55;24.33;;;12.25;;
13611;SDS011;6877;51.436;6.774;2022-12-07T09:11:25;23.08;;;12.07;;
13611;SDS011;6877;51.436;6.774;2022-12-07T09:13:56;29.02;;;12.50;;
13611;SDS011;6877;51.436;6.774;2022-12-07T09:16:28;18.23;;;11.63;;
13611;SDS011;6877;51.436;6.774;2022-12-07T09:18:54;16.95;;;10.65;;
13611;SDS011;6877;51.436;6.774;2022-12-07T09:21:20;20.55;;;12.50;;
13611;SDS011;6877;51.436;6.774;2022-12-07T09:23:52;17.15;;;10.20;;
13611;SDS011;6877;51.436;6.774;2022-12-07T09:26:23;17.35;;;10.57;;
13611;SDS011;6877;51.436;6.774;2022-12-07T09:28:50;14.40;;;9.75;;
13611;SDS011;6877;51.436;6.774;2022-12-07T09:31:16;17.38;;;9.20;;
13611;SDS011;6877;51.436;6.774;2022-12-07T09:33:43;21.45;;;9.13;;
13611;SDS011;6877;51.436;6.774;2022-12-07T09:36:15;19.58;;;8.85;;
13611;SDS011;6877;51.436;6.774;2022-12-07T09:38:41;17.00;;;9.13;;
13611;SDS011;6877;51.436;6.774;2022-12-07T09:41:13;18.75;;;8.35;;
13611;SDS011;6877;51.436;6.774;2022-12-07T09:43:40;29.10;;;8.68;;
13611;SDS011;6877;51.436;6.774;2022-12-07T09:46:08;19.70;;;8.82;;
13611;SDS011;6877;51.436;6.774;2022-12-07T09:48:41;16.38;;;9.48;;
13611;SDS011;6877;51.436;6.774;2022-12-07T09:51:30;16.60;;;9.13;;
13611;SDS011;6877;51.436;6.774;2022-12-07T09:53:56;13.18;;;8.02;;
13611;SDS011;6877;51.436;6.774;2022-12-07T09:56:29;13.05;;;7.57;;
13611;SDS011;6877;51.436;6.774;2022-12-07T09:59:02;13.57;;;6.43;;
13611;SDS011;6877;51.436;6.774;2022-12-07T10:01:30;10.02;;;6.70;;
13611;SDS011;6877;51.436;6.774;2022-12-07T10:04:06;8.20;;;5.10;;
13611;SDS011;6877;51.436;6.774;2022-12-07T10:06:41;11.80;;;5.72;;
13611;SDS011;6877;51.436;6.774;2022-12-07T10:09:14;13.07;;;5.43;;
13611;SDS011;6877;51.436;6.774;2022-12-07T10:12:00;9.10;;;4.75;;
13611;SDS011;6877;51.436;6.774;2022-12-07T10:17:36;10.32;;;4.07;;
13611;SDS011;6877;51.436;6.774;2022-12-07T10:23:03;7.43;;;4.30;;
13611;SDS011;6877;51.436;6.774;2022-12-07T10:25:33;8.23;;;5.50;;
13611;SDS011;6877;51.436;6.774;2022-12-07T10:36:00;7.80;;;4.95;;
13611;SDS011;6877;51.436;6.774;2022-12-07T10:38:46;6.10;;;4.95;;
13611;SDS011;6877;51.436;6.774;2022-12-07T10:41:14;11.43;;;5.38;;
13611;SDS011;6877;51.436;6.774;2022-12-07T10:43:48;15.60;;;6.35;;
13611;SDS011;6877;51.436;6.774;2022-12-07T10:52:47;6.18;;;4.75;;
13611;SDS011;6877;51.436;6.774;2022-12-07T11:01:08;14.32;;;5.95;;
13611;SDS011;6877;51.436;6.774;2022-12-07T11:04:21;11.02;;;5.50;;
13611;SDS011;6877;51.436;6.774;2022-12-07T11:25:54;9.40;;;4.85;;
13611;SDS011;6877;51.436;6.774;2022-12-07T11:28:47;10.63;;;4.97;;
13611;SDS011;6877;51.436;6.774;2022-12-07T11:34:08;5.82;;;4.65;;
13611;SDS011;6877;51.436;6.774;2022-12-07T11:36:44;9.57;;;4.68;;
13611;SDS011;6877;51.436;6.774;2022-12-07T11:39:26;5.47;;;4.10;;
13611;SDS011;6877;51.436;6.774;2022-12-07T11:42:13;11.32;;;4.35;;
13611;SDS011;6877;51.436;6.774;2022-12-07T11:44:50;13.77;;;4.85;;
13611;SDS011;6877;51.436;6.774;2022-12-07T11:52:54;12.00;;;5.00;;
13611;SDS011;6877;51.436;6.774;2022-12-07T12:01:26;10.30;;;4.88;;
13611;SDS011;6877;51.436;6.774;2022-12-07T12:06:40;12.98;;;4.63;;
13611;SDS011;6877;51.436;6.774;2022-12-07T12:15:13;9.68;;;4.53;;
13611;SDS011;6877;51.436;6.774;2022-12-07T12:18:04;11.63;;;5.32;;
13611;SDS011;6877;51.436;6.774;2022-12-07T12:20:32;12.55;;;5.28;;
13611;SDS011;6877;51.436;6.774;2022-12-07T12:26:03;13.25;;;5.70;;
13611;SDS011;6877;51.436;6.774;2022-12-07T12:28:58;18.17;;;5.13;;
13611;SDS011;6877;51.436;6.774;2022-12-07T12:33:58;13.80;;;5.55;;
13611;SDS011;6877;51.436;6.774;2022-12-07T12:39:17;11.45;;;4.95;;
13611;SDS011;6877;51.436;6.774;2022-12-07T12:55:12;8.98;;;4.60;;
13611;SDS011;6877;51.436;6.774;2022-12-07T13:03:59;10.80;;;4.00;;
13611;SDS011;6877;51.436;6.774;2022-12-07T13:08:54;8.20;;;4.63;;
13611;SDS011;6877;51.436;6.774;2022-12-07T13:14:52;5.88;;;3.45;;
13611;SDS011;6877;51.436;6.774;2022-12-07T13:17:57;10.00;;;5.40;;
13611;SDS011;6877;51.436;6.774;2022-12-07T13:19:59;7.97;;;4.57;;
13611;SDS011;6877;51.436;6.774;2022-12-07T13:25:26;11.82;;;5.15;;
13611;SDS011;6877;51.436;6.774;2022-12-07T13:28:10;15.52;;;5.15;;
13611;SDS011;6877;51.436;6.774;2022-12-07T13:30:44;10.85;;;4.75;;
13611;SDS011;6877;51.436;6.774;2022-12-07T13:33:18;7.78;;;5.18;;
13611;SDS011;6877;51.436;6.774;2022-12-07T13:35:48;10.40;;;5.13;;
13611;SDS011;6877;51.436;6.774;2022-12-07T13:38:32;11.65;;;5.13;;
13611;SDS011;6877;51.436;6.774;2022-12-07T13:44:22;17.05;;;6.13;;
13611;SDS011;6877;51.436;6.774;2022-12-07T13:46:32;9.63;;;4.97;;
13611;SDS011;6877;51.436;6.774;2022-12-07T13:52:16;9.15;;;4.93;;
13611;SDS011;6877;51.436;6.774;2022-12-07T13:54:49;12.27;;;5.28;;
13611;SDS011;6877;51.436;6.774;2022-12-07T13:57:39;12.82;;;5.32;;
13611;SDS011;6877;51.436;6.774;2022-12-07T14:00:17;12.10;;;5.22;;
13611;SDS011;6877;51.436;6.774;2022-12-07T14:12:00;10.93;;;3.35;;
13611;SDS011;6877;51.436;6.774;2022-12-07T14:14:37;12.27;;;4.28;;
13611;SDS011;6877;51.436;6.774;2022-12-07T14:17:14;18.50;;;4.70;;
13611;SDS011;6877;51.436;6.774;2022-12-07T14:25:15;8.40;;;4.10;;
13611;SDS011;6877;51.436;6.774;2022-12-07T14:30:20;6.15;;;4.35;;
13611;SDS011;6877;51.436;6.774;2022-12-07T14:32:54;8.90;;;4.28;;
13611;SDS011;6877;51.436;6.774;2022-12-07T14:35:33;9.93;;;3.83;;
13611;SDS011;6877;51.436;6.774;2022-12-07T14:38:00;8.05;;;3.83;;
13611;SDS011;6877;51.436;6.774;2022-12-07T14:40:31;14.20;;;4.00;;
13611;SDS011;6877;51.436;6.774;2022-12-07T14:43:02;7.25;;;3.97;;
13611;SDS011;6877;51.436;6.774;2022-12-07T14:45:36;9.55;;;4.63;;
13611;SDS011;6877;51.436;6.774;2022-12-07T14:48:10;9.13;;;4.32;;
13611;SDS011;6877;51.436;6.774;2022-12-07T14:50:40;15.02;;;5.22;;
13611;SDS011;6877;51.436;6.774;2022-12-07T14:53:16;11.05;;;4.22;;
13611;SDS011;6877;51.436;6.774;2022-12-07T14:55:47;17.38;;;5.35;;
13611;SDS011;6877;51.436;6.774;2022-12-07T14:58:19;10.15;;;4.28;;
13611;SDS011;6877;51.436;6.774;2022-12-07T15:00:46;10.32;;;4.95;;
13611;SDS011;6877;51.436;6.774;2022-12-07T15:03:18;14.27;;;5.70;;
13611;SDS011;6877;51.436;6.774;2022-12-07T15:05:49;10.23;;;4.65;;
13611;SDS011;6877;51.436;6.774;2022-12-07T15:08:21;12.90;;;4.80;;
13611;SDS011;6877;51.436;6.774;2022-12-07T15:10:52;11.02;;;5.13;;
13611;SDS011;6877;51.436;6.774;2022-12-07T15:13:24;6.90;;;4.97;;
13611;SDS011;6877;51.436;6.774;2022-12-07T15:16:15;14.80;;;5.60;;
13611;SDS011;6877;51.436;6.774;2022-12-07T15:18:50;10.63;;;5.10;;
13611;SDS011;6877;51.436;6.774;2022-12-07T15:21:17;15.65;;;5.90;;
13611;SDS011;6877;51.436;6.774;2022-12-07T15:23:48;10.60;;;4.65;;
13611;SDS011;6877;51.436;6.774;2022-12-07T15:26:20;13.68;;;4.97;;
13611;SDS011;6877;51.436;6.774;2022-12-07T15:28:52;8.60;;;4.93;;
13611;SDS011;6877;51.436;6.774;2022-12-07T15:31:25;12.10;;;5.43;;
13611;SDS011;6877;51.436;6.774;2022-12-07T15:33:56;23.55;;;7.15;;
13611;SDS011;6877;51.436;6.774;2022-12-07T15:36:28;14.05;;;6.25;;
13611;SDS011;6877;51.436;6.774;2022-12-07T15:39:02;10.00;;;4.95;;
13611;SDS011;6877;51.436;6.774;2022-12-07T15:41:34;21.58;;;7.22;;
13611;SDS011;6877;51.436;6.774;2022-12-07T15:44:08;15.77;;;6.47;;
13611;SDS011;6877;51.436;6.774;2022-12-07T15:47:04;10.10;;;6.03;;
13611;SDS011;6877;51.436;6.774;2022-12-07T15:49:36;10.15;;;5.57;;
13611;SDS011;6877;51.436;6.774;2022-12-07T15:52:08;11.27;;;5.93;;
13611;SDS011;6877;51.436;6.774;2022-12-07T15:54:39;18.17;;;7.65;;
13611;SDS011;6877;51.436;6.774;2022-12-07T15:57:11;11.63;;;6.78;;
13611;SDS011;6877;51.436;6.774;2022-12-07T15:59:42;12.88;;;6.85;;
13611;SDS011;6877;51.436;6.774;2022-12-07T16:02:14;14.73;;;6.72;;
13611;SDS011;6877;51.436;6.774;2022-12-07T16:04:45;12.68;;;6.38;;
13611;SDS011;6877;51.436;6.774;2022-12-07T16:07:12;22.08;;;7.97;;
13611;SDS011;6877;51.436;6.774;2022-12-07T16:09:45;13.38;;;6.32;;
13611;SDS011;6877;51.436;6.774;2022-12-07T16:12:18;15.93;;;7.55;;
13611;SDS011;6877;51.436;6.774;2022-12-07T16:14:49;12.93;;;6.13;;
13611;SDS011;6877;51.436;6.774;2022-12-07T16:17:20;17.08;;;7.22;;
13611;SDS011;6877;51.436;6.774;2022-12-07T16:19:52;15.77;;;7.45;;
13611;SDS011;6877;51.436;6.774;2022-12-07T16:22:24;13.27;;;7.20;;
13611;SDS011;6877;51.436;6.774;2022-12-07T16:24:50;11.77;;;6.28;;
13611;SDS011;6877;51.436;6.774;2022-12-07T16:27:22;13.50;;;5.93;;
13611;SDS011;6877;51.436;6.774;2022-12-07T16:29:53;12.07;;;6.60;;
13611;SDS011;6877;51.436;6.774;2022-12-07T16:32:24;12.13;;;6.28;;
13611;SDS011;6877;51.436;6.774;2022-12-07T16:34:56;12.55;;;5.95;;
13611;SDS011;6877;51.436;6.774;2022-12-07T16:37:27;11.93;;;5.47;;
13611;SDS011;6877;51.436;6.774;2022-12-07T16:39:59;12.18;;;6.30;;
13611;SDS011;6877;51.436;6.774;2022-12-07T16:42:31;14.82;;;6.50;;
13611;SDS011;6877;51.436;6.774;2022-12-07T16:45:03;10.27;;;4.65;;
13611;SDS011;6877;51.436;6.774;2022-12-07T16:47:39;12.52;;;5.03;;
13611;SDS011;6877;51.436;6.774;2022-12-07T16:50:10;12.82;;;5.43;;
13611;SDS011;6877;51.436;6.774;2022-12-07T16:52:42;9.35;;;4.57;;
13611;SDS011;6877;51.436;6.774;2022-12-07T16:55:14;11.35;;;4.95;;
13611;SDS011;6877;51.436;6.774;2022-12-07T16:57:46;9.63;;;4.60;;
13611;SDS011;6877;51.436;6.774;2022-12-07T17:00:18;13.57;;;4.88;;
13611;SDS011;6877;51.436;6.774;2022-12-07T17:02:50;10.05;;;5.07;;
13611;SDS011;6877;51.436;6.774;2022-12-07T17:05:22;7.35;;;3.95;;
13611;SDS011;6877;51.436;6.774;2022-12-07T17:07:55;12.43;;;4.32;;
13611;SDS011;6877;51.436;6.774;2022-12-07T17:10:27;7.95;;;4.90;;
13611;SDS011;6877;51.436;6.774;2022-12-07T17:12:59;14.77;;;6.05;;
13611;SDS011;6877;51.436;6.774;2022-12-07T17:15:31;15.45;;;6.15;;
13611;SDS011;6877;51.436;6.774;2022-12-07T17:18:03;9.82;;;5.55;;
13611;SDS011;6877;51.436;6.774;2022-12-07T17:20:34;11.93;;;7.07;;
13611;SDS011;6877;51.436;6.774;2022-12-07T17:23:06;12.25;;;6.40;;
13611;SDS011;6877;51.436;6.774;2022-12-07T17:25:37;7.97;;;5.30;;
13611;SDS011;6877;51.436;6.774;2022-12-07T17:28:09;12.82;;;5.82;;
13611;SDS011;6877;51.436;6.774;2022-12-07T17:30:40;12.48;;;7.00;;
13611;SDS011;6877;51.436;6.774;2022-12-07T17:33:12;16.67;;;7.18;;
13611;SDS011;6877;51.436;6.774;2022-12-07T17:35:43;12.35;;;5.97;;
13611;SDS011;6877;51.436;6.774;2022-12-07T17:38:15;21.15;;;6.53;;
13611;SDS011;6877;51.436;6.774;2022-12-07T17:40:46;10.25;;;6.57;;
13611;SDS011;6877;51.436;6.774;2022-12-07T17:43:18;11.32;;;6.82;;
13611;SDS011;6877;51.436;6.774;2022-12-07T17:45:49;29.80;;;8.18;;
13611;SDS011;6877;51.436;6.774;2022-12-07T17:48:21;14.25;;;6.78;;
13611;SDS011;6877;51.436;6.774;2022-12-07T17:50:52;10.32;;;6.47;;
13611;SDS011;6877;51.436;6.774;2022-12-07T17:53:42;11.30;;;5.53;;
13611;SDS011;6877;51.436;6.774;2022-12-07T17:56:08;15.13;;;6.25;;
13611;SDS011;6877;51.436;6.774;2022-12-07T17:58:35;10.55;;;6.47;;
13611;SDS011;6877;51.436;6.774;2022-12-07T18:01:09;10.82;;;6.25;;
13611;SDS011;6877;51.436;6.774;2022-12-07T18:03:41;10.25;;;5.68;;
13611;SDS011;6877;51.436;6.774;2022-12-07T18:06:12;17.60;;;7.00;;
13611;SDS011;6877;51.436;6.774;2022-12-07T18:08:44;13.15;;;6.43;;
13611;SDS011;6877;51.436;6.774;2022-12-07T18:11:15;13.02;;;6.63;;
13611;SDS011;6877;51.436;6.774;2022-12-07T18:13:47;15.43;;;9.00;;